Time;durP1;ratioP1;P1;durP2;ratioP2;P2;SDS_P1;SDS_P2;PMS_P1;PMS_P2;Temp;Humidity;BMP_temperature;BMP_pressure;BME280_temperature;BME280_humidity;BME280_pressure;Samples;Min_cycle;Max_cycle;Signal;HPM_P1;HPM_P2
2021/07/28 00:00:47;;;;;;;;;4.00;4.00;;;;;;;;5018525;27;45528;-79
2021/07/28 00:03:12;;;;;;;;;8.00;4.67;;;;;;;;5013224;27;45500;-79
2021/07/28 00:05:37;;;;;;;;;6.00;4.00;;;;;;;;5034327;27;45478;-78
2021/07/28 00:08:03;;;;;;;;;4.00;4.00;;;;;;;;5031972;27;46213;-79
2021/07/28 00:10:28;;;;;;;;;8.00;4.75;;;;;;;;5013873;28;45724;-79
2021/07/28 00:12:54;;;;;;;;;3.67;3.67;;;;;;;;5031863;27;45442;-79
2021/07/28 00:15:19;;;;;;;;;4.50;4.25;;;;;;;;5028819;27;45436;-79
2021/07/28 00:17:50;;;;;;;;;4.00;4.00;;;;;;;;5051185;28;47992;-79
2021/07/28 00:25:34;;;;;;;;;5.50;4.00;;;;;;;;5030372;28;45423;-79
2021/07/28 00:27:59;;;;;;;;;3.75;3.25;;;;;;;;5032191;27;46123;-79
2021/07/28 00:30:24;;;;;;;;;7.00;4.33;;;;;;;;5027659;27;45610;-79
2021/07/28 00:32:49;;;;;;;;;6.00;4.00;;;;;;;;5034376;28;45428;-79
2021/07/28 00:35:15;;;;;;;;;5.25;3.00;;;;;;;;5013945;27;45496;-80
2021/07/28 00:37:40;;;;;;;;;3.33;3.33;;;;;;;;5013331;27;47164;-79
2021/07/28 00:40:06;;;;;;;;;2.75;2.75;;;;;;;;5047633;27;45497;-79
2021/07/28 00:42:31;;;;;;;;;6.50;5.00;;;;;;;;5028397;27;45624;-79
2021/07/28 00:44:57;;;;;;;;;5.00;4.67;;;;;;;;5015331;27;45468;-79
2021/07/28 00:47:22;;;;;;;;;5.00;3.67;;;;;;;;5032024;27;45542;-78
2021/07/28 00:49:48;;;;;;;;;7.00;4.00;;;;;;;;5031839;27;45542;-78
2021/07/28 00:52:13;;;;;;;;;6.25;5.00;;;;;;;;5031399;28;45613;-79
2021/07/28 00:54:39;;;;;;;;;5.50;4.00;;;;;;;;5029409;27;45402;-79
2021/07/28 00:57:05;;;;;;;;;5.50;4.00;;;;;;;;5013886;27;48572;-79
2021/07/28 00:59:30;;;;;;;;;4.00;4.00;;;;;;;;5031920;27;45973;-79
2021/07/28 01:01:56;;;;;;;;;5.67;4.00;;;;;;;;5049086;27;45674;-79
2021/07/28 01:04:21;;;;;;;;;5.00;5.00;;;;;;;;5031515;28;45535;-79
2021/07/28 01:06:47;;;;;;;;;5.25;3.50;;;;;;;;5014445;27;47132;-78
2021/07/28 01:09:12;;;;;;;;;6.00;4.50;;;;;;;;5029730;27;45466;-79
2021/07/28 01:11:37;;;;;;;;;6.25;4.25;;;;;;;;5032015;27;45402;-78
2021/07/28 01:14:04;;;;;;;;;7.00;4.00;;;;;;;;5029379;28;45724;-79
2021/07/28 01:16:31;;;;;;;;;4.00;4.00;;;;;;;;5030364;28;45758;-79
2021/07/28 01:18:59;;;;;;;;;6.00;4.00;;;;;;;;5030952;28;45366;-79
2021/07/28 01:21:25;;;;;;;;;5.25;4.50;;;;;;;;5009088;28;45528;-79
2021/07/28 01:23:50;;;;;;;;;5.50;5.00;;;;;;;;5034769;27;45441;-80
2021/07/28 01:26:15;;;;;;;;;5.25;3.50;;;;;;;;5030716;27;45929;-79
2021/07/28 01:28:41;;;;;;;;;5.00;5.00;;;;;;;;5030667;27;45473;-79
2021/07/28 01:31:07;;;;;;;;;5.00;3.75;;;;;;;;5031536;28;45464;-79
2021/07/28 01:33:39;;;;;;;;;5.00;4.00;;;;;;;;5027809;28;45503;-79
2021/07/28 01:36:08;;;;;;;;;5.50;4.50;;;;;;;;5031220;27;45582;-78
2021/07/28 01:38:33;;;;;;;;;4.00;4.00;;;;;;;;5075666;27;45464;-79
2021/07/28 01:40:59;;;;;;;;;4.33;4.33;;;;;;;;5045481;27;45649;-79
2021/07/28 01:43:26;;;;;;;;;9.50;4.75;;;;;;;;5046762;28;45493;-79
2021/07/28 01:45:52;;;;;;;;;3.00;3.00;;;;;;;;5047152;27;46663;-79
2021/07/28 01:48:17;;;;;;;;;5.50;3.00;;;;;;;;5031099;28;45268;-79
2021/07/28 01:50:45;;;;;;;;;4.00;3.33;;;;;;;;5036024;28;45485;-79
2021/07/28 01:53:10;;;;;;;;;5.25;4.25;;;;;;;;5018490;28;45466;-79
2021/07/28 01:55:36;;;;;;;;;4.75;4.25;;;;;;;;5018301;27;47788;-77
2021/07/28 01:58:01;;;;;;;;;5.00;4.00;;;;;;;;5049467;28;45417;-79
2021/07/28 02:00:27;;;;;;;;;6.25;3.25;;;;;;;;5030346;27;45280;-80
2021/07/28 02:02:52;;;;;;;;;3.00;3.00;;;;;;;;5037157;27;45586;-79
2021/07/28 02:05:17;;;;;;;;;5.75;4.25;;;;;;;;5049342;28;47221;-78
2021/07/28 02:07:42;;;;;;;;;5.50;3.25;;;;;;;;5034588;27;45471;-79
2021/07/28 02:10:08;;;;;;;;;5.67;3.00;;;;;;;;5019677;27;45561;-79
2021/07/28 02:12:33;;;;;;;;;3.00;3.00;;;;;;;;5030564;27;45457;-79
2021/07/28 02:14:58;;;;;;;;;4.33;3.33;;;;;;;;5035712;28;46067;-78
2021/07/28 02:17:24;;;;;;;;;8.33;4.67;;;;;;;;5017279;27;45374;-79
2021/07/28 02:19:49;;;;;;;;;2.00;2.00;;;;;;;;5024195;27;45496;-79
2021/07/28 02:22:14;;;;;;;;;4.00;3.50;;;;;;;;5033836;28;45323;-79
2021/07/28 02:24:40;;;;;;;;;5.75;3.25;;;;;;;;5046954;28;46078;-79
2021/07/28 02:27:05;;;;;;;;;4.00;2.25;;;;;;;;5090757;27;46630;-79
2021/07/28 02:29:31;;;;;;;;;2.50;2.50;;;;;;;;5033496;28;45244;-79
2021/07/28 02:31:57;;;;;;;;;3.00;3.00;;;;;;;;5034048;28;45667;-79
2021/07/28 02:34:22;;;;;;;;;3.50;2.25;;;;;;;;5018722;27;47160;-79
2021/07/28 02:36:47;;;;;;;;;5.00;2.00;;;;;;;;5048452;28;45542;-79
2021/07/28 02:39:12;;;;;;;;;3.75;3.25;;;;;;;;5031749;27;45622;-79
2021/07/28 02:41:38;;;;;;;;;4.67;2.00;;;;;;;;5017274;27;45444;-79
2021/07/28 02:44:03;;;;;;;;;3.75;3.00;;;;;;;;5034021;27;46363;-79
2021/07/28 02:46:28;;;;;;;;;3.50;3.25;;;;;;;;5049675;27;45480;-79
2021/07/28 02:48:54;;;;;;;;;3.75;2.50;;;;;;;;5031861;27;45566;-79
2021/07/28 02:51:19;;;;;;;;;5.67;2.67;;;;;;;;5025069;27;45559;-80
2021/07/28 02:53:44;;;;;;;;;5.00;3.25;;;;;;;;5018717;27;48341;-79
2021/07/28 02:56:09;;;;;;;;;4.75;3.00;;;;;;;;5032628;27;45478;-78
2021/07/28 02:58:34;;;;;;;;;4.00;2.00;;;;;;;;5033042;28;45677;-79
2021/07/28 03:01:00;;;;;;;;;2.67;2.00;;;;;;;;5025537;27;45509;-79
2021/07/28 03:03:25;;;;;;;;;2.00;2.00;;;;;;;;5029200;27;46585;-79
2021/07/28 03:05:50;;;;;;;;;4.00;2.67;;;;;;;;5037236;27;45551;-78
2021/07/28 03:08:16;;;;;;;;;1.50;1.00;;;;;;;;5048812;28;45458;-79
2021/07/28 03:10:41;;;;;;;;;4.25;3.50;;;;;;;;5017592;27;45558;-78
2021/07/28 03:13:06;;;;;;;;;2.00;2.00;;;;;;;;5008892;28;48150;-78
2021/07/28 03:15:32;;;;;;;;;2.00;2.00;;;;;;;;5027176;27;45393;-78
2021/07/28 03:17:57;;;;;;;;;3.00;2.67;;;;;;;;5034858;27;45404;-78
2021/07/28 03:20:22;;;;;;;;;2.00;2.00;;;;;;;;5042185;28;45485;-79
2021/07/28 03:22:47;;;;;;;;;3.00;2.00;;;;;;;;5018705;27;46104;-79
2021/07/28 03:25:13;;;;;;;;;1.25;1.25;;;;;;;;5033037;28;45858;-78
2021/07/28 03:27:38;;;;;;;;;2.67;2.67;;;;;;;;5032147;27;45530;-79
2021/07/28 03:30:03;;;;;;;;;6.00;2.33;;;;;;;;5072560;27;45576;-79
2021/07/28 03:32:28;;;;;;;;;3.00;3.00;;;;;;;;5034281;27;45574;-79
2021/07/28 03:34:54;;;;;;;;;3.33;2.33;;;;;;;;5033264;27;45322;-78
2021/07/28 03:37:19;;;;;;;;;3.00;3.00;;;;;;;;5033376;28;45615;-79
2021/07/28 03:39:45;;;;;;;;;3.00;3.00;;;;;;;;5027218;28;45548;-79
2021/07/28 03:42:10;;;;;;;;;2.50;2.50;;;;;;;;5032355;28;46158;-78
2021/07/28 03:44:35;;;;;;;;;2.25;2.25;;;;;;;;5034704;27;45307;-79
2021/07/28 03:47:00;;;;;;;;;6.00;2.00;;;;;;;;5017935;27;45501;-79
2021/07/28 03:49:25;;;;;;;;;4.67;1.33;;;;;;;;5028576;28;45414;-79
2021/07/28 03:51:51;;;;;;;;;2.00;2.00;;;;;;;;5034245;27;46004;-79
2021/07/28 03:54:16;;;;;;;;;2.00;2.00;;;;;;;;5030525;27;45291;-79
2021/07/28 03:56:41;;;;;;;;;3.67;3.00;;;;;;;;5027595;27;45473;-78
2021/07/28 03:59:06;;;;;;;;;1.67;1.33;;;;;;;;5049143;27;45473;-78
2021/07/28 04:01:31;;;;;;;;;4.00;3.00;;;;;;;;5032544;28;45426;-79
2021/07/28 04:03:57;;;;;;;;;5.25;3.75;;;;;;;;5048434;28;45989;-80
2021/07/28 04:06:22;;;;;;;;;2.00;2.00;;;;;;;;5024031;27;45368;-79
2021/07/28 04:08:47;;;;;;;;;2.33;2.00;;;;;;;;5012972;27;45527;-78
2021/07/28 04:11:12;;;;;;;;;5.67;3.00;;;;;;;;5026129;27;46400;-79
2021/07/28 04:13:38;;;;;;;;;3.25;3.25;;;;;;;;5017985;27;45414;-79
2021/07/28 04:16:03;;;;;;;;;2.33;2.33;;;;;;;;5033323;28;45390;-79
2021/07/28 04:18:28;;;;;;;;;2.50;2.25;;;;;;;;5022536;27;45444;-78
2021/07/28 04:20:53;;;;;;;;;4.33;2.00;;;;;;;;5036512;27;45926;-78
2021/07/28 04:23:19;;;;;;;;;2.33;2.00;;;;;;;;5032306;27;45488;-79
2021/07/28 04:25:44;;;;;;;;;4.00;3.00;;;;;;;;5032203;27;45723;-79
2021/07/28 04:28:09;;;;;;;;;3.00;3.00;;;;;;;;5026726;28;45561;-78
2021/07/28 04:30:34;;;;;;;;;2.33;2.33;;;;;;;;5024363;27;46043;-79
2021/07/28 04:33:00;;;;;;;;;2.00;2.00;;;;;;;;5032263;27;45358;-79
2021/07/28 04:35:25;;;;;;;;;3.00;3.00;;;;;;;;5030119;27;45389;-79
2021/07/28 04:37:50;;;;;;;;;2.75;2.00;;;;;;;;5031380;27;45279;-80
2021/07/28 04:40:16;;;;;;;;;5.00;2.00;;;;;;;;5032018;28;45480;-79
2021/07/28 04:42:41;;;;;;;;;3.00;2.00;;;;;;;;5029353;27;45573;-79
2021/07/28 04:45:06;;;;;;;;;2.00;2.00;;;;;;;;5032221;28;45530;-79
2021/07/28 04:47:33;;;;;;;;;3.00;2.00;;;;;;;;5048159;28;45511;-79
2021/07/28 04:49:58;;;;;;;;;6.50;2.75;;;;;;;;5016544;27;46277;-79
2021/07/28 04:52:25;;;;;;;;;2.33;2.33;;;;;;;;5031860;28;45526;-79
2021/07/28 04:54:50;;;;;;;;;2.25;2.25;;;;;;;;5046163;28;45400;-78
2021/07/28 04:57:16;;;;;;;;;4.00;2.25;;;;;;;;5011889;27;45802;-79
2021/07/28 04:59:41;;;;;;;;;2.00;2.00;;;;;;;;5033702;27;45449;-80
2021/07/28 05:02:06;;;;;;;;;3.50;2.25;;;;;;;;5047048;28;45585;-79
2021/07/28 05:04:31;;;;;;;;;2.00;2.00;;;;;;;;5032054;28;45382;-79
2021/07/28 05:06:56;;;;;;;;;4.00;1.67;;;;;;;;5031011;27;46009;-79
2021/07/28 05:09:22;;;;;;;;;3.33;2.00;;;;;;;;5027989;27;46170;-79
2021/07/28 05:11:47;;;;;;;;;3.33;3.33;;;;;;;;5035241;27;45338;-79
2021/07/28 05:14:12;;;;;;;;;2.33;2.00;;;;;;;;5021202;27;45560;-78
2021/07/28 05:16:37;;;;;;;;;5.00;1.67;;;;;;;;5037670;27;45465;-77
2021/07/28 05:19:03;;;;;;;;;3.67;3.00;;;;;;;;5025121;28;45561;-79
2021/07/28 05:21:28;;;;;;;;;4.00;2.00;;;;;;;;5032138;27;45413;-77
2021/07/28 05:23:53;;;;;;;;;3.00;2.00;;;;;;;;5019925;27;45890;-79
2021/07/28 05:26:18;;;;;;;;;4.33;4.00;;;;;;;;5034402;27;45545;-79
2021/07/28 05:28:44;;;;;;;;;4.33;3.00;;;;;;;;5034261;27;46185;-78
2021/07/28 05:31:09;;;;;;;;;3.00;3.00;;;;;;;;5034775;28;45382;-79
2021/07/28 05:33:34;;;;;;;;;3.00;2.33;;;;;;;;5033198;27;45648;-78
2021/07/28 05:35:59;;;;;;;;;2.00;2.00;;;;;;;;5035569;27;45504;-78
2021/07/28 05:38:25;;;;;;;;;1.67;1.67;;;;;;;;5010814;27;47255;-78
2021/07/28 05:40:55;;;;;;;;;3.25;3.00;;;;;;;;5031867;27;45699;-78
2021/07/28 05:43:20;;;;;;;;;1.25;1.00;;;;;;;;5034291;28;45365;-78
2021/07/28 05:45:45;;;;;;;;;7.00;3.00;;;;;;;;5017046;27;45841;-79
2021/07/28 05:48:10;;;;;;;;;3.33;2.00;;;;;;;;5033674;27;45588;-78
2021/07/28 05:50:36;;;;;;;;;3.33;2.00;;;;;;;;5035524;27;45722;-77
2021/07/28 05:53:01;;;;;;;;;5.25;2.25;;;;;;;;5033295;27;45822;-79
2021/07/28 05:55:26;;;;;;;;;5.67;3.00;;;;;;;;5017768;27;45451;-77
2021/07/28 05:57:53;;;;;;;;;3.00;3.00;;;;;;;;5047263;27;47081;-77
2021/07/28 06:00:18;;;;;;;;;3.25;2.00;;;;;;;;5048000;27;46223;-78
2021/07/28 06:02:43;;;;;;;;;4.00;4.00;;;;;;;;5050681;27;45620;-76
2021/07/28 06:05:09;;;;;;;;;4.33;3.00;;;;;;;;5034013;27;45370;-78
2021/07/28 06:07:34;;;;;;;;;5.00;2.00;;;;;;;;5025687;27;45569;-78
2021/07/28 06:09:59;;;;;;;;;2.67;2.67;;;;;;;;5026022;27;45406;-77
2021/07/28 06:12:24;;;;;;;;;3.00;2.00;;;;;;;;5047081;27;45505;-78
2021/07/28 06:14:50;;;;;;;;;4.00;3.00;;;;;;;;5017879;27;45362;-78
2021/07/28 06:17:15;;;;;;;;;3.00;2.67;;;;;;;;5033862;27;45455;-77
2021/07/28 06:19:42;;;;;;;;;2.00;1.67;;;;;;;;5032866;27;45443;-77
2021/07/28 06:22:08;;;;;;;;;3.25;2.00;;;;;;;;5033412;27;45654;-78
2021/07/28 06:24:33;;;;;;;;;4.75;2.00;;;;;;;;5030668;27;45421;-76
2021/07/28 06:26:58;;;;;;;;;4.00;3.00;;;;;;;;5017808;27;45936;-78
2021/07/28 06:29:26;;;;;;;;;5.33;2.00;;;;;;;;5014786;27;45823;-77
2021/07/28 06:31:52;;;;;;;;;3.00;3.00;;;;;;;;5033728;27;45605;-77
2021/07/28 06:34:18;;;;;;;;;2.00;2.00;;;;;;;;5033329;28;45349;-77
2021/07/28 06:36:43;;;;;;;;;3.67;3.67;;;;;;;;5015374;27;46958;-79
2021/07/28 06:39:08;;;;;;;;;4.50;3.25;;;;;;;;5033733;28;45562;-78
2021/07/28 06:41:33;;;;;;;;;2.00;2.00;;;;;;;;5034202;27;45467;-77
2021/07/28 06:43:58;;;;;;;;;2.33;2.33;;;;;;;;5048944;27;45586;-79
2021/07/28 06:46:24;;;;;;;;;3.33;2.00;;;;;;;;5032607;28;45541;-75
2021/07/28 06:48:49;;;;;;;;;4.33;2.67;;;;;;;;5032399;27;45797;-77
2021/07/28 06:51:14;;;;;;;;;3.00;3.00;;;;;;;;5031750;27;45670;-78
2021/07/28 06:53:40;;;;;;;;;3.00;2.00;;;;;;;;5035272;27;45476;-79
2021/07/28 06:56:05;;;;;;;;;2.00;2.00;;;;;;;;5032382;27;46085;-78
2021/07/28 06:58:30;;;;;;;;;4.00;2.33;;;;;;;;5033053;28;45548;-77
2021/07/28 07:00:58;;;;;;;;;4.00;2.00;;;;;;;;5020710;27;45647;-78
2021/07/28 07:03:23;;;;;;;;;4.00;2.00;;;;;;;;5071470;27;45633;-77
2021/07/28 07:05:49;;;;;;;;;3.50;2.50;;;;;;;;5036245;27;45964;-78
2021/07/28 07:08:15;;;;;;;;;3.00;3.00;;;;;;;;5033322;27;45531;-78
2021/07/28 07:10:40;;;;;;;;;2.75;2.50;;;;;;;;5021315;27;45546;-78
2021/07/28 07:13:05;;;;;;;;;3.00;3.00;;;;;;;;5048539;28;45674;-78
2021/07/28 07:15:30;;;;;;;;;3.67;1.00;;;;;;;;5028292;27;45281;-78
2021/07/28 07:17:56;;;;;;;;;2.33;2.00;;;;;;;;5017020;27;45587;-78
2021/07/28 07:20:21;;;;;;;;;4.00;3.00;;;;;;;;5033661;27;45512;-78
2021/07/28 07:22:46;;;;;;;;;5.33;2.33;;;;;;;;5032901;27;45468;-78
2021/07/28 07:25:12;;;;;;;;;3.00;1.75;;;;;;;;5033168;28;45644;-79
2021/07/28 07:27:40;;;;;;;;;3.00;2.00;;;;;;;;5029895;27;45607;-78
2021/07/28 07:30:05;;;;;;;;;7.00;3.00;;;;;;;;5015293;27;45448;-78
2021/07/28 07:32:31;;;;;;;;;3.75;2.50;;;;;;;;5033816;27;45515;-78
2021/07/28 07:34:57;;;;;;;;;4.75;2.00;;;;;;;;5032318;27;46439;-79
2021/07/28 07:37:23;;;;;;;;;3.00;3.00;;;;;;;;5032388;28;45465;-78
2021/07/28 07:39:48;;;;;;;;;4.00;3.25;;;;;;;;5028806;27;46103;-77
2021/07/28 07:42:13;;;;;;;;;4.75;2.75;;;;;;;;5013038;28;45300;-78
2021/07/28 07:44:38;;;;;;;;;3.33;2.33;;;;;;;;5034002;27;45398;-78
2021/07/28 07:47:04;;;;;;;;;5.33;3.00;;;;;;;;5048663;28;45662;-79
2021/07/28 07:49:29;;;;;;;;;3.25;3.25;;;;;;;;5032396;28;45380;-78
2021/07/28 07:51:54;;;;;;;;;3.00;3.00;;;;;;;;5029724;27;45569;-78
2021/07/28 07:54:19;;;;;;;;;5.00;2.00;;;;;;;;5029103;27;46152;-78
2021/07/28 07:56:45;;;;;;;;;4.00;2.67;;;;;;;;5030807;27;45427;-79
2021/07/28 07:59:10;;;;;;;;;2.67;2.67;;;;;;;;5032397;27;45375;-79
2021/07/28 08:01:35;;;;;;;;;2.00;2.00;;;;;;;;5031438;27;45449;-79
2021/07/28 08:04:01;;;;;;;;;2.50;2.50;;;;;;;;5030469;27;46541;-78
2021/07/28 08:06:26;;;;;;;;;3.00;2.00;;;;;;;;5029344;27;45212;-78
2021/07/28 08:08:51;;;;;;;;;2.00;2.00;;;;;;;;5073219;27;45238;-77
2021/07/28 08:11:16;;;;;;;;;1.33;1.33;;;;;;;;5034195;27;45643;-78
2021/07/28 08:13:42;;;;;;;;;3.67;2.33;;;;;;;;5031791;27;46212;-78
2021/07/28 08:16:11;;;;;;;;;4.00;3.00;;;;;;;;5032055;27;45517;-78
2021/07/28 08:18:36;;;;;;;;;1.75;1.75;;;;;;;;5028515;27;45878;-78
2021/07/28 08:21:02;;;;;;;;;1.00;1.00;;;;;;;;5030646;27;45491;-79
2021/07/28 08:23:28;;;;;;;;;1.00;1.00;;;;;;;;5027058;27;45442;-79
2021/07/28 08:25:53;;;;;;;;;3.00;1.25;;;;;;;;5016600;27;45508;-78
2021/07/28 08:28:18;;;;;;;;;1.00;1.00;;;;;;;;5032561;28;45497;-78
2021/07/28 08:30:43;;;;;;;;;1.00;1.00;;;;;;;;5029624;27;45408;-78
2021/07/28 08:33:09;;;;;;;;;3.00;1.00;;;;;;;;5014028;27;47193;-79
2021/07/28 08:35:34;;;;;;;;;3.00;1.00;;;;;;;;5032608;27;45365;-78
2021/07/28 08:37:59;;;;;;;;;1.33;1.00;;;;;;;;5047297;27;45571;-79
2021/07/28 08:40:25;;;;;;;;;1.75;1.00;;;;;;;;5032131;28;45568;-78
2021/07/28 08:42:53;;;;;;;;;3.75;1.00;;;;;;;;5028765;27;48239;-79
2021/07/28 08:45:19;;;;;;;;;3.00;2.00;;;;;;;;5029347;27;45442;-78
2021/07/28 08:47:44;;;;;;;;;2.00;1.25;;;;;;;;5033820;27;45502;-78
2021/07/28 08:50:10;;;;;;;;;2.75;2.00;;;;;;;;5031639;27;45791;-78
2021/07/28 08:52:36;;;;;;;;;6.00;1.50;;;;;;;;5030248;28;46590;-79
2021/07/28 08:55:02;;;;;;;;;2.50;1.00;;;;;;;;5031701;27;45551;-78
2021/07/28 08:57:31;;;;;;;;;3.50;2.00;;;;;;;;5027104;27;45485;-77
2021/07/28 08:59:57;;;;;;;;;3.25;2.00;;;;;;;;5016159;27;45316;-78
2021/07/28 09:02:22;;;;;;;;;1.50;1.50;;;;;;;;5014010;27;48293;-79
2021/07/28 09:04:47;;;;;;;;;1.00;1.00;;;;;;;;5031398;27;45543;-79
2021/07/28 09:07:14;;;;;;;;;1.67;1.67;;;;;;;;5031752;28;45387;-79
2021/07/28 09:09:56;;;;;;;;;0.25;0.25;;;;;;;;5044469;28;45516;-78
2021/07/28 09:12:32;;;;;;;;;1.00;1.00;;;;;;;;5010610;27;47258;-78
2021/07/28 09:15:01;;;;;;;;;1.00;1.00;;;;;;;;5032549;27;45785;-78
2021/07/28 09:17:27;;;;;;;;;1.00;1.00;;;;;;;;5032298;27;45529;-79
2021/07/28 09:19:53;;;;;;;;;1.25;1.00;;;;;;;;5031226;27;45511;-78
2021/07/28 09:22:19;;;;;;;;;3.00;1.00;;;;;;;;5031466;28;46190;-79
2021/07/28 09:24:46;;;;;;;;;1.00;1.00;;;;;;;;5029086;27;45464;-79
2021/07/28 09:27:34;;;;;;;;;1.75;1.75;;;;;;;;5029511;27;45335;-78
2021/07/28 09:29:59;;;;;;;;;1.25;1.00;;;;;;;;5028317;27;45501;-78
2021/07/28 09:32:25;;;;;;;;;1.00;1.00;;;;;;;;5031960;27;46698;-78
2021/07/28 09:34:53;;;;;;;;;1.33;1.00;;;;;;;;5026788;27;45381;-78
2021/07/28 09:37:18;;;;;;;;;1.00;1.00;;;;;;;;5031952;28;45429;-78
2021/07/28 09:39:44;;;;;;;;;3.00;1.00;;;;;;;;5045582;27;45777;-79
2021/07/28 09:42:11;;;;;;;;;2.00;2.00;;;;;;;;5009366;27;46074;-78
2021/07/28 09:44:37;;;;;;;;;2.00;2.00;;;;;;;;5013046;27;45554;-79
2021/07/28 09:47:02;;;;;;;;;2.25;0.25;;;;;;;;5011799;27;45404;-79
2021/07/28 09:49:27;;;;;;;;;1.00;1.00;;;;;;;;5008444;28;45361;-78
2021/07/28 09:51:52;;;;;;;;;4.00;2.00;;;;;;;;5008976;27;48150;-79
2021/07/28 09:54:18;;;;;;;;;2.00;1.00;;;;;;;;5007590;27;46143;-78
2021/07/28 09:56:50;;;;;;;;;1.33;1.33;;;;;;;;5013473;27;45300;-78
2021/07/28 09:59:16;;;;;;;;;1.50;1.50;;;;;;;;5007220;27;45281;-79
2021/07/28 10:01:42;;;;;;;;;2.00;1.00;;;;;;;;5013280;27;45940;-78
2021/07/28 10:04:10;;;;;;;;;1.00;1.00;;;;;;;;5012345;27;45969;-78
2021/07/28 10:06:39;;;;;;;;;2.25;1.00;;;;;;;;5011293;27;45562;-78
2021/07/28 10:09:09;;;;;;;;;2.00;2.00;;;;;;;;5013718;27;45365;-79
2021/07/28 10:11:36;;;;;;;;;2.25;2.00;;;;;;;;5015246;27;46245;-79
2021/07/28 10:14:02;;;;;;;;;0.50;0.50;;;;;;;;5014763;27;45487;-79
2021/07/28 10:16:27;;;;;;;;;1.75;1.75;;;;;;;;5014834;27;45340;-78
2021/07/28 10:18:55;;;;;;;;;2.00;2.00;;;;;;;;5011737;27;45334;-78
2021/07/28 10:21:20;;;;;;;;;1.00;1.00;;;;;;;;5011086;27;46101;-79
2021/07/28 10:23:47;;;;;;;;;4.00;3.00;;;;;;;;5036358;28;45978;-77
2021/07/28 10:26:13;;;;;;;;;1.25;1.25;;;;;;;;5010708;27;45485;-78
2021/07/28 10:28:46;;;;;;;;;2.00;2.00;;;;;;;;5015463;27;45646;-78
2021/07/28 10:31:22;;;;;;;;;4.25;1.50;;;;;;;;5015686;28;45521;-78
2021/07/28 10:33:49;;;;;;;;;2.50;2.50;;;;;;;;5064166;27;45734;-79
2021/07/28 10:36:15;;;;;;;;;2.00;2.00;;;;;;;;5011411;27;45571;-79
2021/07/28 10:38:51;;;;;;;;;3.00;2.00;;;;;;;;5018736;27;45823;-78
2021/07/28 10:41:35;;;;;;;;;2.00;2.00;;;;;;;;5013095;27;46037;-78
2021/07/28 10:44:15;;;;;;;;;1.00;1.00;;;;;;;;5014217;28;45605;-77
2021/07/28 10:46:52;;;;;;;;;2.00;1.00;;;;;;;;5013804;27;45498;-77
2021/07/28 10:49:38;;;;;;;;;2.00;2.00;;;;;;;;5015374;28;45691;-78
2021/07/28 10:52:13;;;;;;;;;1.00;1.00;;;;;;;;5025149;28;46472;-77
2021/07/28 10:57:31;;;;;;;;;1.50;1.50;;;;;;;;5012991;27;45574;-79
2021/07/28 10:59:56;;;;;;;;;0.75;0.75;;;;;;;;5013373;27;45296;-77
2021/07/28 11:02:21;;;;;;;;;1.00;1.00;;;;;;;;5013888;27;46319;-79
2021/07/28 11:05:07;;;;;;;;;0.50;0.50;;;;;;;;5013261;27;45333;-78
2021/07/28 11:07:51;;;;;;;;;1.50;0.25;;;;;;;;5045504;28;45359;-77
2021/07/28 11:10:19;;;;;;;;;6.00;3.25;;;;;;;;5006959;28;45285;-77
2021/07/28 11:12:44;;;;;;;;;2.00;1.00;;;;;;;;5013925;27;46144;-79
2021/07/28 11:15:10;;;;;;;;;1.67;1.67;;;;;;;;4998875;27;45428;-78
2021/07/28 11:17:35;;;;;;;;;1.00;1.00;;;;;;;;5009342;27;45527;-79
2021/07/28 11:20:01;;;;;;;;;1.67;1.67;;;;;;;;5014896;27;45492;-77
2021/07/28 11:22:26;;;;;;;;;1.00;1.00;;;;;;;;5013327;28;46112;-78
2021/07/28 11:24:55;;;;;;;;;1.00;1.00;;;;;;;;5012051;27;45446;-78
2021/07/28 11:27:20;;;;;;;;;2.25;1.00;;;;;;;;5010166;27;45463;-79
2021/07/28 11:29:47;;;;;;;;;1.00;1.00;;;;;;;;5014592;27;45489;-78
2021/07/28 11:32:20;;;;;;;;;1.75;1.00;;;;;;;;5010807;27;46362;-78
2021/07/28 11:34:55;;;;;;;;;3.25;2.25;;;;;;;;5013250;27;45740;-78
2021/07/28 11:37:20;;;;;;;;;1.75;1.00;;;;;;;;5007898;27;45696;-79
2021/07/28 11:39:48;;;;;;;;;1.50;1.50;;;;;;;;5011837;27;45298;-78
2021/07/28 11:42:14;;;;;;;;;1.00;1.00;;;;;;;;5025166;27;45301;-79
2021/07/28 11:44:43;;;;;;;;;1.00;1.00;;;;;;;;5034240;27;45306;-78
2021/07/28 11:47:10;;;;;;;;;3.25;1.00;;;;;;;;5028706;28;45456;-78
2021/07/28 11:49:35;;;;;;;;;2.75;1.25;;;;;;;;5027569;28;45741;-79
2021/07/28 11:52:01;;;;;;;;;5.00;1.00;;;;;;;;5032300;27;45500;-79
2021/07/28 11:54:28;;;;;;;;;1.00;1.00;;;;;;;;5028759;27;45617;-79
2021/07/28 11:56:53;;;;;;;;;1.00;0.25;;;;;;;;5036006;27;45735;-78
2021/07/28 11:59:26;;;;;;;;;1.25;1.00;;;;;;;;5032299;27;45347;-78
2021/07/28 12:01:55;;;;;;;;;2.00;2.00;;;;;;;;5032885;27;47475;-79
2021/07/28 12:04:25;;;;;;;;;2.00;0.25;;;;;;;;5032595;28;45370;-78
2021/07/28 12:06:50;;;;;;;;;1.00;1.00;;;;;;;;5030632;27;45298;-78
2021/07/28 12:09:17;;;;;;;;;1.00;1.00;;;;;;;;5031328;27;45664;-76
2021/07/28 12:11:43;;;;;;;;;1.75;1.00;;;;;;;;5034826;27;46348;-78
2021/07/28 12:14:08;;;;;;;;;2.75;1.00;;;;;;;;5032067;27;45688;-78
2021/07/28 12:16:40;;;;;;;;;2.33;1.00;;;;;;;;5017548;28;45555;-78
2021/07/28 12:19:05;;;;;;;;;2.25;1.00;;;;;;;;5022616;28;45559;-78
2021/07/28 12:21:50;;;;;;;;;2.00;2.00;;;;;;;;5027992;27;46379;-78
2021/07/28 12:24:16;;;;;;;;;1.00;1.00;;;;;;;;5027823;27;45881;-78
2021/07/28 12:26:48;;;;;;;;;3.67;1.00;;;;;;;;5034131;27;45642;-78
2021/07/28 12:29:32;;;;;;;;;1.75;1.75;;;;;;;;5005681;28;45489;-78
2021/07/28 12:31:57;;;;;;;;;1.00;1.00;;;;;;;;5064947;27;46013;-79
2021/07/28 12:34:23;;;;;;;;;5.33;2.67;;;;;;;;5032322;28;45521;-78
2021/07/28 12:36:48;;;;;;;;;3.00;2.00;;;;;;;;5030350;28;45362;-79
2021/07/28 12:39:14;;;;;;;;;1.50;1.00;;;;;;;;5031153;27;45309;-77
2021/07/28 12:41:39;;;;;;;;;1.50;1.50;;;;;;;;5033610;27;45444;-78
2021/07/28 12:44:04;;;;;;;;;1.67;1.67;;;;;;;;5031515;27;45298;-79
2021/07/28 12:46:30;;;;;;;;;1.33;1.33;;;;;;;;5028500;28;45538;-78
2021/07/28 12:48:55;;;;;;;;;3.00;1.67;;;;;;;;5005661;27;45561;-78
2021/07/28 12:51:22;;;;;;;;;3.33;2.00;;;;;;;;5023995;27;45468;-79
2021/07/28 12:53:47;;;;;;;;;2.00;2.00;;;;;;;;5016898;27;45367;-79
2021/07/28 12:56:12;;;;;;;;;3.00;3.00;;;;;;;;5047090;28;46498;-79
2021/07/28 12:58:38;;;;;;;;;2.00;2.00;;;;;;;;5016803;27;45302;-78
2021/07/28 13:01:04;;;;;;;;;1.00;1.00;;;;;;;;5033230;28;45933;-78
2021/07/28 13:03:29;;;;;;;;;3.00;2.25;;;;;;;;5027022;27;45598;-78
2021/07/28 13:05:58;;;;;;;;;2.75;2.75;;;;;;;;5017479;27;45420;-78
2021/07/28 13:08:24;;;;;;;;;2.75;2.00;;;;;;;;5016880;27;45960;-78
2021/07/28 13:10:49;;;;;;;;;2.25;2.25;;;;;;;;5046577;27;47345;-78
2021/07/28 13:13:15;;;;;;;;;3.00;3.00;;;;;;;;5032017;28;45511;-77
2021/07/28 13:15:41;;;;;;;;;2.25;2.25;;;;;;;;5044472;27;45570;-77
2021/07/28 13:18:07;;;;;;;;;4.50;2.50;;;;;;;;5031010;27;45289;-77
2021/07/28 13:20:32;;;;;;;;;2.00;1.25;;;;;;;;5032242;27;45461;-76
2021/07/28 13:22:58;;;;;;;;;1.75;1.50;;;;;;;;5031148;27;45429;-77
2021/07/28 13:25:23;;;;;;;;;4.00;2.00;;;;;;;;5031647;28;45372;-78
2021/07/28 13:27:48;;;;;;;;;2.00;2.00;;;;;;;;5030135;27;45555;-78
2021/07/28 13:30:14;;;;;;;;;3.00;2.00;;;;;;;;5011434;27;46363;-78
2021/07/28 13:32:40;;;;;;;;;3.50;3.50;;;;;;;;5034396;27;45471;-78
2021/07/28 13:35:05;;;;;;;;;2.25;2.25;;;;;;;;5030572;27;45448;-78
2021/07/28 13:37:31;;;;;;;;;2.25;2.00;;;;;;;;5015636;27;45452;-78
2021/07/28 13:39:57;;;;;;;;;2.75;1.25;;;;;;;;5031905;27;45510;-79
2021/07/28 13:42:22;;;;;;;;;1.00;1.00;;;;;;;;5030196;27;45436;-79
2021/07/28 13:44:48;;;;;;;;;1.00;1.00;;;;;;;;5036182;27;45455;-78
2021/07/28 13:47:13;;;;;;;;;3.00;2.00;;;;;;;;5032847;27;45539;-77
2021/07/28 13:49:38;;;;;;;;;1.75;1.75;;;;;;;;5031125;27;46042;-78
2021/07/28 13:52:04;;;;;;;;;1.00;1.00;;;;;;;;5015281;27;45512;-78
2021/07/28 13:54:29;;;;;;;;;4.50;1.50;;;;;;;;5030485;27;45620;-78
2021/07/28 13:57:08;;;;;;;;;1.00;1.00;;;;;;;;5036042;27;45490;-78
2021/07/28 13:59:33;;;;;;;;;2.50;2.00;;;;;;;;5030811;27;47138;-78
2021/07/28 14:01:59;;;;;;;;;3.00;1.00;;;;;;;;5033856;27;45452;-78
2021/07/28 14:04:24;;;;;;;;;3.00;2.00;;;;;;;;5029296;28;45401;-78
2021/07/28 14:06:49;;;;;;;;;4.00;1.25;;;;;;;;5037129;27;45543;-78
2021/07/28 14:09:14;;;;;;;;;2.00;2.00;;;;;;;;5026933;27;46073;-79
2021/07/28 14:11:40;;;;;;;;;3.67;1.67;;;;;;;;5050736;27;45682;-78
2021/07/28 14:14:05;;;;;;;;;3.25;2.25;;;;;;;;5034348;27;45455;-78
2021/07/28 14:16:30;;;;;;;;;1.25;1.25;;;;;;;;5016657;27;45526;-78
2021/07/28 14:18:55;;;;;;;;;1.67;1.67;;;;;;;;5033457;27;45585;-78
2021/07/28 14:21:20;;;;;;;;;2.00;2.00;;;;;;;;5031056;27;45491;-78
2021/07/28 14:23:46;;;;;;;;;2.67;2.67;;;;;;;;5037163;27;45520;-78
2021/07/28 14:26:11;;;;;;;;;2.00;2.00;;;;;;;;5033888;27;45389;-78
2021/07/28 14:28:36;;;;;;;;;1.33;1.33;;;;;;;;5037268;28;46252;-78
2021/07/28 14:31:01;;;;;;;;;2.00;2.00;;;;;;;;5041453;27;45484;-78
2021/07/28 14:33:27;;;;;;;;;1.25;1.25;;;;;;;;5026674;27;45440;-78
2021/07/28 14:35:52;;;;;;;;;4.67;3.00;;;;;;;;5017690;27;45417;-78
2021/07/28 14:38:17;;;;;;;;;1.00;1.00;;;;;;;;5035366;27;45645;-78
2021/07/28 14:40:42;;;;;;;;;3.00;1.67;;;;;;;;5035038;27;45561;-78
2021/07/28 14:43:07;;;;;;;;;1.67;1.67;;;;;;;;5034842;27;45497;-78
2021/07/28 14:45:34;;;;;;;;;3.25;2.00;;;;;;;;5024343;27;45472;-78